Time;durP1;ratioP1;P1;durP2;ratioP2;P2;SDS_P1;SDS_P2;PMS_P1;PMS_P2;Temp;Humidity;BMP_temperature;BMP_pressure;BME280_temperature;BME280_humidity;BME280_pressure;Samples;Min_cycle;Max_cycle;Signal;HPM_P1;HPM_P2
2021/11/11 00:02:32;;;;;;;;;134.50;115.50;;;;;0.21;74.15;103548.34;5041262;28;8867;-69
2021/11/11 00:05:28;;;;;;;;;165.75;130.00;;;;;0.13;74.98;103551.19;5053937;28;8841;-69
2021/11/11 00:08:24;;;;;;;;;157.00;125.25;;;;;0.15;74.72;103546.41;5037741;28;8836;-69
2021/11/11 00:11:19;;;;;;;;;144.25;121.50;;;;;0.14;75.06;103551.00;5039497;28;8823;-69
2021/11/11 00:14:15;;;;;;;;;126.50;118.00;;;;;0.12;74.83;103549.50;5042958;28;8863;-69
2021/11/11 00:17:11;;;;;;;;;137.50;113.00;;;;;0.05;74.46;103529.53;5054451;28;9581;-70
2021/11/11 00:20:09;;;;;;;;;159.25;125.00;;;;;0.30;74.14;103547.19;5054270;28;8824;-69
2021/11/11 00:23:05;;;;;;;;;150.75;133.75;;;;;-0.03;75.13;103547.66;5035519;28;8838;-69
2021/11/11 00:26:00;;;;;;;;;122.25;121.75;;;;;0.10;74.85;103549.72;5053655;28;8818;-69
2021/11/11 00:28:56;;;;;;;;;161.25;134.25;;;;;0.06;75.39;103547.56;5055748;28;8844;-69
2021/11/11 00:31:52;;;;;;;;;192.75;155.25;;;;;-0.07;76.16;103548.25;5054519;28;9664;-69
2021/11/11 00:34:51;;;;;;;;;166.50;139.00;;;;;-0.02;75.25;103538.47;5055032;28;8910;-69
2021/11/11 00:37:47;;;;;;;;;167.25;146.00;;;;;0.22;74.33;103528.25;5054013;28;8852;-69
2021/11/11 00:40:43;;;;;;;;;184.50;140.25;;;;;0.40;74.19;103522.41;5040409;28;8935;-69
2021/11/11 00:43:39;;;;;;;;;169.50;142.75;;;;;0.36;74.01;103521.94;5054030;28;8840;-69
2021/11/11 00:46:34;;;;;;;;;107.75;72.25;;;;;0.21;74.55;103515.69;5053959;28;9565;-69
2021/11/11 00:49:30;;;;;;;;;165.50;134.75;;;;;0.15;74.80;103511.84;5053801;28;8890;-69
2021/11/11 00:52:25;;;;;;;;;111.75;83.50;;;;;0.21;74.60;103516.53;5053941;28;8828;-69
2021/11/11 00:55:21;;;;;;;;;138.50;123.25;;;;;0.15;74.73;103521.91;5053547;28;8855;-69
2021/11/11 00:58:17;;;;;;;;;147.25;127.00;;;;;0.03;75.83;103518.00;5054312;28;8947;-69
2021/11/11 01:01:13;;;;;;;;;173.25;138.25;;;;;0.00;75.36;103530.13;5053460;28;8918;-69
2021/11/11 01:04:08;;;;;;;;;152.25;132.00;;;;;0.04;75.77;103509.66;5053527;28;8828;-69
2021/11/11 01:07:06;;;;;;;;;164.00;132.25;;;;;0.08;75.04;103516.41;5040266;28;8886;-69
2021/11/11 01:10:05;;;;;;;;;153.25;125.75;;;;;0.04;76.12;103506.09;5039687;28;8867;-69
2021/11/11 01:13:01;;;;;;;;;146.00;125.25;;;;;-0.05;75.65;103494.47;5053434;28;8824;-69
2021/11/11 01:15:58;;;;;;;;;170.25;151.25;;;;;0.14;75.02;103502.00;5054582;28;9582;-69
2021/11/11 01:18:53;;;;;;;;;172.25;145.50;;;;;-0.02;76.09;103503.09;5053240;28;8844;-69
2021/11/11 01:21:50;;;;;;;;;147.75;126.25;;;;;-0.03;76.22;103508.72;5039845;28;8831;-69
2021/11/11 01:24:46;;;;;;;;;144.75;124.75;;;;;-0.11;76.17;103501.53;5053255;28;8827;-69
2021/11/11 01:27:42;;;;;;;;;140.75;109.00;;;;;-0.04;75.52;103496.16;5053025;28;8859;-69
2021/11/11 01:30:41;;;;;;;;;153.25;126.00;;;;;0.26;74.98;103496.91;5052567;28;8886;-69
2021/11/11 01:33:37;;;;;;;;;130.25;109.75;;;;;0.00;75.03;103483.88;5053004;28;8820;-69
2021/11/11 01:36:32;;;;;;;;;137.25;119.25;;;;;0.01;75.99;103477.38;5053018;28;8933;-69
2021/11/11 01:39:28;;;;;;;;;112.00;88.75;;;;;0.10;76.26;103472.66;5052552;28;8839;-69
2021/11/11 01:42:24;;;;;;;;;123.25;106.00;;;;;0.24;75.59;103483.50;5052827;28;8835;-69
2021/11/11 01:45:49;;;;;;;;;197.25;147.00;;;;;0.09;76.59;103488.16;5039608;28;8827;-69
2021/11/11 01:48:45;;;;;;;;;249.50;202.25;;;;;-0.03;76.07;103486.94;5052498;28;9575;-69
2021/11/11 01:51:41;;;;;;;;;423.75;292.50;;;;;-0.12;76.96;103482.66;5052627;28;8840;-69
2021/11/11 01:54:37;;;;;;;;;598.75;441.00;;;;;-0.10;77.05;103477.88;5052668;28;8824;-69
2021/11/11 01:57:34;;;;;;;;;588.25;436.00;;;;;-0.08;77.18;103483.97;5052582;28;8835;-69
2021/11/11 02:00:35;;;;;;;;;694.75;447.00;;;;;-0.11;77.52;103479.75;5038753;28;8852;-69
2021/11/11 02:03:31;;;;;;;;;676.50;464.75;;;;;-0.11;77.94;103482.47;5039012;28;8843;-69
2021/11/11 02:06:27;;;;;;;;;709.50;501.25;;;;;-0.08;77.32;103471.22;5052472;28;8847;-69
2021/11/11 02:09:23;;;;;;;;;695.75;482.50;;;;;-0.12;77.61;103479.94;5051997;28;8832;-69
2021/11/11 02:12:19;;;;;;;;;501.75;358.50;;;;;-0.04;76.89;103485.28;5039120;28;8816;-69
2021/11/11 02:15:17;;;;;;;;;510.75;365.50;;;;;-0.10;77.37;103472.44;5052290;28;8836;-69
2021/11/11 02:18:13;;;;;;;;;314.25;243.75;;;;;0.06;75.92;103466.75;5052321;28;8922;-69
2021/11/11 02:21:09;;;;;;;;;213.00;173.50;;;;;-0.04;76.49;103452.63;5052574;28;8824;-69
2021/11/11 02:24:06;;;;;;;;;182.25;141.25;;;;;-0.16;76.38;103444.09;5038872;28;8910;-69
2021/11/11 02:27:01;;;;;;;;;158.50;130.50;;;;;-0.27;76.69;103433.75;5052436;28;8855;-69
2021/11/11 02:29:57;;;;;;;;;147.50;127.25;;;;;-0.30;76.32;103434.13;5052350;28;8958;-69
2021/11/11 02:32:53;;;;;;;;;204.50;168.00;;;;;-0.40;77.15;103431.69;5052120;28;8824;-69
2021/11/11 02:35:49;;;;;;;;;293.25;209.50;;;;;-0.40;77.42;103439.00;5051984;28;8836;-69
2021/11/11 02:38:44;;;;;;;;;258.00;208.00;;;;;-0.29;76.76;103454.84;5038635;28;8836;-69
2021/11/11 02:41:45;;;;;;;;;217.50;169.00;;;;;-0.43;76.44;103453.84;5051846;28;9611;-69
2021/11/11 02:44:42;;;;;;;;;154.00;144.25;;;;;-0.24;76.42;103457.81;5051915;28;8828;-69
2021/11/11 02:47:38;;;;;;;;;123.75;103.25;;;;;-0.19;75.54;103462.69;5038874;28;8855;-69
2021/11/11 02:50:34;;;;;;;;;204.00;160.50;;;;;-0.31;76.03;103474.09;5052058;28;8974;-69
2021/11/11 02:53:29;;;;;;;;;215.50;156.75;;;;;-0.50;76.81;103462.94;5038743;28;8852;-69
2021/11/11 02:56:25;;;;;;;;;212.25;165.25;;;;;-0.45;76.56;103455.91;5051713;28;9577;-69
2021/11/11 02:59:21;;;;;;;;;186.50;140.00;;;;;-0.32;75.27;103461.50;5053295;28;9581;-69
2021/11/11 03:02:26;;;;;;;;;177.00;146.25;;;;;-0.41;76.35;103449.03;5055752;28;8831;-69
2021/11/11 03:05:29;;;;;;;;;130.75;110.50;;;;;-0.20;74.92;103445.53;5055955;28;8936;-69
2021/11/11 03:08:25;;;;;;;;;116.75;89.25;;;;;-0.17;74.47;103447.88;5055634;28;8848;-69
2021/11/11 03:11:25;;;;;;;;;114.00;92.75;;;;;-0.07;74.05;103450.28;5042257;28;8955;-69
2021/11/11 03:14:20;;;;;;;;;123.00;107.75;;;;;-0.27;74.51;103441.91;5042482;28;8815;-69
2021/11/11 03:17:16;;;;;;;;;141.25;117.25;;;;;-0.06;73.60;103451.97;5055457;28;8918;-68
2021/11/11 03:20:13;;;;;;;;;141.00;128.75;;;;;-0.26;74.04;103437.31;5042180;28;8878;-69
2021/11/11 03:23:09;;;;;;;;;157.75;130.50;;;;;-0.16;73.59;103435.09;5055437;28;8847;-69
2021/11/11 03:26:05;;;;;;;;;129.00;107.00;;;;;-0.30;74.27;103428.69;5055434;28;8894;-69
2021/11/11 03:29:00;;;;;;;;;126.25;107.25;;;;;-0.35;74.64;103418.38;5055539;28;8886;-68
2021/11/11 03:31:57;;;;;;;;;137.25;115.25;;;;;-0.22;74.07;103412.25;5055656;28;8828;-69
2021/11/11 03:34:52;;;;;;;;;123.50;91.50;;;;;-0.25;74.11;103409.06;5042034;28;8895;-69
2021/11/11 03:37:50;;;;;;;;;123.00;98.00;;;;;-0.31;74.19;103408.81;5055452;28;8816;-68
2021/11/11 03:40:46;;;;;;;;;101.25;78.50;;;;;-0.42;74.47;103414.72;5054862;28;8836;-69
2021/11/11 03:43:42;;;;;;;;;83.50;69.00;;;;;-0.52;75.07;103414.22;5055081;28;8893;-68
2021/11/11 03:46:38;;;;;;;;;73.00;60.50;;;;;-0.45;74.58;103420.56;5041764;28;8924;-69
2021/11/11 03:49:35;;;;;;;;;69.00;57.00;;;;;-0.52;74.21;103419.66;5054920;28;8839;-69
2021/11/11 03:52:30;;;;;;;;;65.67;50.67;;;;;-0.35;74.00;103420.25;5055275;28;8929;-69
2021/11/11 03:55:26;;;;;;;;;74.00;54.00;;;;;-0.42;73.54;103422.91;5054769;28;8843;-69
2021/11/11 03:58:22;;;;;;;;;59.33;49.33;;;;;-0.45;73.47;103423.28;5054792;28;8926;-69
2021/11/11 04:01:18;;;;;;;;;73.00;59.00;;;;;-0.40;73.99;103428.13;5055034;28;8840;-69
2021/11/11 04:04:14;;;;;;;;;61.67;52.00;;;;;-0.76;75.16;103431.66;5054876;28;8836;-69
2021/11/11 04:07:09;;;;;;;;;81.25;66.25;;;;;-0.97;76.12;103424.25;5054728;28;8839;-69
2021/11/11 04:10:06;;;;;;;;;76.00;57.50;;;;;-0.63;75.49;103428.25;5053890;28;8832;-69
2021/11/11 04:13:04;;;;;;;;;77.50;60.50;;;;;-0.60;74.68;103436.06;5054631;28;8926;-69
2021/11/11 04:16:00;;;;;;;;;71.33;58.67;;;;;-0.60;74.65;103425.19;5052432;28;8839;-68
2021/11/11 04:18:55;;;;;;;;;81.00;62.50;;;;;-0.67;74.59;103422.38;5024511;28;8995;-68
2021/11/11 04:21:51;;;;;;;;;74.00;61.50;;;;;-0.76;75.45;103426.25;5016961;28;8820;-69
2021/11/11 04:24:48;;;;;;;;;67.00;57.50;;;;;-0.67;74.95;103424.25;5028496;28;9671;-69
2021/11/11 04:27:56;;;;;;;;;74.25;62.25;;;;;-0.47;74.96;103417.16;5058644;28;8866;-68
2021/11/11 04:30:57;;;;;;;;;76.00;61.50;;;;;-0.59;75.17;103410.56;5036664;28;8871;-68
2021/11/11 04:33:57;;;;;;;;;69.25;57.75;;;;;-0.75;75.74;103418.94;5035280;28;8885;-68
2021/11/11 04:52:24;;;;;;;;;82.00;66.75;;;;;-0.60;74.74;103428.75;5034551;28;8852;-69
2021/11/11 05:05:05;;;;;;;;;81.50;64.25;;;;;-0.56;73.77;103438.19;5027871;28;8845;-68
2021/11/11 05:08:00;;;;;;;;;47.33;42.33;;;;;-0.41;72.42;103442.78;5035625;28;8849;-68
2021/11/11 05:10:57;;;;;;;;;54.67;45.33;;;;;-0.35;72.44;103431.97;5034767;28;9515;-68
2021/11/11 05:13:53;;;;;;;;;48.67;45.67;;;;;-0.11;71.43;103447.09;5034640;28;8967;-69
2021/11/11 05:16:49;;;;;;;;;45.00;39.00;;;;;-0.12;71.03;103453.59;5031883;28;8935;-69
2021/11/11 05:19:44;;;;;;;;;40.67;37.67;;;;;-0.13;72.02;103457.34;5032222;28;8842;-69
2021/11/11 05:22:41;;;;;;;;;45.33;41.33;;;;;-0.02;71.35;103454.09;5056973;28;8865;-68
2021/11/11 05:25:36;;;;;;;;;39.33;38.33;;;;;-0.05;71.07;103453.66;5034131;28;8893;-68
2021/11/11 05:28:32;;;;;;;;;65.67;48.67;;;;;0.21;70.86;103461.25;5035561;28;8866;-69
2021/11/11 05:31:43;;;;;;;;;47.67;44.33;;;;;0.22;70.55;103457.47;5052194;28;8925;-68
2021/11/11 05:34:39;;;;;;;;;38.33;31.33;;;;;0.36;70.43;103461.19;5033561;28;9056;-69
2021/11/11 05:37:35;;;;;;;;;47.67;44.33;;;;;0.39;70.70;103460.81;5033710;28;8857;-69
2021/11/11 05:40:31;;;;;;;;;42.33;39.67;;;;;0.47;70.03;103466.13;5033968;28;8885;-68
2021/11/11 05:43:27;;;;;;;;;60.00;49.00;;;;;0.58;69.16;103460.13;5033684;28;8830;-69
2021/11/11 05:46:23;;;;;;;;;60.00;48.33;;;;;0.71;69.13;103467.59;5033317;28;8853;-69
2021/11/11 05:49:19;;;;;;;;;49.67;40.33;;;;;0.69;69.29;103466.91;5033144;28;8837;-68
2021/11/11 05:52:14;;;;;;;;;59.33;51.00;;;;;0.80;69.42;103461.78;5035131;28;8947;-68
2021/11/11 05:55:10;;;;;;;;;45.33;37.67;;;;;0.79;69.20;103460.09;5056233;28;8833;-68
2021/11/11 05:58:06;;;;;;;;;59.67;46.67;;;;;0.79;69.04;103465.56;5031707;28;8857;-68
2021/11/11 06:01:01;;;;;;;;;51.67;48.00;;;;;0.81;68.77;103466.19;5032673;28;8907;-69
2021/11/11 06:03:57;;;;;;;;;80.67;61.00;;;;;1.04;68.50;103467.81;5033136;28;8869;-69
2021/11/11 06:06:53;;;;;;;;;48.67;44.00;;;;;1.15;68.96;103467.28;5032538;28;8852;-69
2021/11/11 06:09:48;;;;;;;;;63.33;48.00;;;;;1.16;67.95;103471.69;5033024;28;8841;-69
2021/11/11 06:12:44;;;;;;;;;50.00;44.67;;;;;1.43;67.33;103471.81;5013436;28;8836;-69
2021/11/11 06:15:40;;;;;;;;;37.00;37.00;;;;;1.53;67.37;103456.75;5017994;28;8925;-69
2021/11/11 06:18:36;;;;;;;;;51.67;46.00;;;;;1.61;66.82;103456.59;5025888;28;8869;-69
2021/11/11 06:21:31;;;;;;;;;55.67;48.33;;;;;1.73;66.80;103456.00;5051730;28;8818;-69
2021/11/11 06:24:27;;;;;;;;;61.33;53.00;;;;;1.74;66.99;103463.97;5053134;28;8843;-70
2021/11/11 06:27:23;;;;;;;;;56.33;50.33;;;;;1.90;65.69;103447.25;5051115;28;8949;-69
2021/11/11 06:30:18;;;;;;;;;57.00;48.67;;;;;2.06;66.04;103448.75;5051566;28;8848;-69
2021/11/11 06:33:14;;;;;;;;;55.00;50.00;;;;;2.23;66.21;103446.50;5052542;28;8829;-69
2021/11/11 06:36:10;;;;;;;;;58.33;48.67;;;;;2.27;66.88;103428.63;5052026;28;8846;-70
2021/11/11 06:38:39;;;;;;;;;63.00;51.00;;;;;2.46;66.40;103432.44;5043526;28;8845;-69
2021/11/11 06:41:35;;;;;;;;;67.33;55.00;;;;;2.55;66.06;103433.91;5050217;28;8847;-70
2021/11/11 06:44:30;;;;;;;;;58.67;50.33;;;;;2.41;66.46;103421.28;5043906;28;8811;-70
2021/11/11 06:46:58;;;;;;;;;58.00;49.33;;;;;2.65;66.69;103428.00;5032800;28;8854;-70
2021/11/11 06:49:54;;;;;;;;;62.00;52.00;;;;;2.79;65.91;103419.59;5018318;28;8956;-70
2021/11/11 06:52:50;;;;;;;;;70.67;58.33;;;;;2.94;65.83;103402.09;5037820;28;8836;-70
2021/11/11 06:55:34;;;;;;;;;64.67;54.00;;;;;3.31;65.17;103411.47;5037321;28;8827;-70
2021/11/11 06:58:03;;;;;;;;;61.67;51.67;;;;;3.42;63.97;103399.84;5067762;28;8840;-70
2021/11/11 07:01:01;;;;;;;;;62.00;51.00;;;;;3.61;63.84;103406.31;5041028;28;8924;-70
2021/11/11 07:03:30;;;;;;;;;57.67;50.33;;;;;3.77;63.26;103397.56;5052636;28;8862;-70
2021/11/11 07:06:12;;;;;;;;;58.00;50.67;;;;;3.77;62.46;103399.47;5051418;28;8849;-69
2021/11/11 07:08:41;;;;;;;;;64.67;50.00;;;;;3.72;61.57;103397.38;5052377;28;8867;-70
2021/11/11 07:11:36;;;;;;;;;50.33;46.67;;;;;4.05;63.42;103399.06;5051383;28;9573;-70
2021/11/11 07:14:04;;;;;;;;;58.33;50.00;;;;;4.32;61.31;103395.09;5033332;28;8844;-71
2021/11/11 07:16:32;;;;;;;;;41.33;41.33;;;;;4.38;59.71;103401.59;5052213;28;8875;-72
2021/11/11 07:19:28;;;;;;;;;46.00;40.67;;;;;4.51;60.67;103393.22;5050288;28;11685;-74
2021/11/11 07:21:57;;;;;;;;;41.50;38.25;;;;;4.67;59.12;103398.13;5033622;28;11553;-72
2021/11/11 07:24:26;;;;;;;;;35.00;34.75;;;;;4.86;58.26;103403.69;5051536;28;11547;-69
2021/11/11 07:26:54;;;;;;;;;33.00;31.50;;;;;5.02;56.62;103400.34;5051385;28;11513;-71
2021/11/11 07:29:35;;;;;;;;;22.50;22.50;;;;;5.24;54.79;103404.31;5048670;28;11476;-72
2021/11/11 07:32:04;;;;;;;;;23.50;23.50;;;;;5.32;55.21;103402.31;5051389;28;11769;-71
2021/11/11 07:34:59;;;;;;;;;19.50;19.50;;;;;5.37;53.54;103402.44;5031896;28;11612;-72
2021/11/11 07:37:27;;;;;;;;;24.50;23.00;;;;;5.54;52.90;103393.38;5026562;28;11564;-72
2021/11/11 07:39:55;;;;;;;;;22.00;20.50;;;;;5.73;52.51;103398.81;5050257;28;11642;-72
2021/11/11 07:42:25;;;;;;;;;18.00;16.50;;;;;5.88;50.74;103399.25;5052332;28;11544;-72
2021/11/11 07:44:53;;;;;;;;;14.25;13.75;;;;;5.71;50.69;103392.72;5033116;28;11482;-70
2021/11/11 07:47:49;;;;;;;;;13.00;13.00;;;;;5.99;50.15;103398.50;5036118;28;11712;-71
2021/11/11 07:50:45;;;;;;;;;16.75;16.75;;;;;6.10;49.39;103388.59;5052204;28;11584;-72
2021/11/11 07:53:27;;;;;;;;;13.25;13.25;;;;;6.05;49.63;103391.19;5054192;28;11609;-72
2021/11/11 07:56:22;;;;;;;;;12.25;12.25;;;;;6.53;46.97;103392.97;5055036;28;11630;-72
2021/11/11 07:59:18;;;;;;;;;13.75;13.25;;;;;6.54;46.79;103395.47;5055793;28;11510;-70
2021/11/11 08:02:15;;;;;;;;;10.00;10.00;;;;;6.44;45.45;103394.38;5055937;28;11652;-71
2021/11/11 08:05:14;;;;;;;;;12.75;12.75;;;;;6.54;45.08;103387.22;5049423;28;12375;-69
2021/11/11 08:07:49;;;;;;;;;10.00;10.00;;;;;6.39;44.96;103395.94;5053475;28;11493;-73
2021/11/11 08:10:20;;;;;;;;;7.25;7.25;;;;;6.47;45.31;103391.19;5036983;28;11494;-70
2021/11/11 08:13:16;;;;;;;;;9.75;9.75;;;;;6.93;44.96;103393.09;5039668;28;11539;-70
2021/11/11 08:16:12;;;;;;;;;11.25;10.75;;;;;7.01;44.68;103400.16;5039933;28;11509;-70
2021/11/11 08:19:08;;;;;;;;;14.50;13.00;;;;;6.89;44.70;103391.88;5061479;28;11571;-71
2021/11/11 08:21:36;;;;;;;;;9.50;9.50;;;;;7.18;45.38;103390.06;5036269;28;11503;-70
2021/11/11 08:24:04;;;;;;;;;31.50;29.75;;;;;6.88;45.61;103380.03;5054590;28;11605;-71
2021/11/11 08:26:37;;;;;;;;;35.75;33.00;;;;;6.83;45.86;103366.19;5018288;28;11548;-72
2021/11/11 08:29:13;;;;;;;;;11.00;11.00;;;;;7.04;45.16;103372.13;5038626;28;11545;-71
2021/11/11 08:31:41;;;;;;;;;11.75;11.50;;;;;7.31;44.69;103383.44;5055193;28;11655;-72
2021/11/11 08:34:36;;;;;;;;;7.50;7.50;;;;;7.16;44.14;103376.53;5054728;28;12319;-71
2021/11/11 08:37:32;;;;;;;;;11.75;11.75;;;;;7.44;44.21;103356.47;5036125;28;11515;-72
2021/11/11 08:39:59;;;;;;;;;10.75;6.75;;;;;7.67;43.60;103371.25;5043220;28;12232;-72
2021/11/11 08:42:42;;;;;;;;;11.25;11.25;;;;;7.89;43.79;103350.16;5054372;28;11422;-71
2021/11/11 08:45:10;;;;;;;;;6.50;6.50;;;;;8.12;43.25;103353.84;5060209;28;11458;-72
2021/11/11 08:47:53;;;;;;;;;10.50;10.50;;;;;8.28;42.40;103359.41;5053776;28;11467;-71
2021/11/11 08:50:49;;;;;;;;;15.00;14.00;;;;;8.26;42.48;103360.72;5064254;28;11456;-72
2021/11/11 08:53:46;;;;;;;;;4.50;4.50;;;;;8.08;42.00;103351.59;5060377;28;11442;-70
2021/11/11 08:56:48;;;;;;;;;8.25;8.25;;;;;8.20;41.85;103354.25;5053069;28;11460;-72
2021/11/11 08:59:19;;;;;;;;;7.00;6.75;;;;;7.99;42.29;103342.06;5053467;28;11459;-71
2021/11/11 09:01:49;;;;;;;;;13.75;11.50;;;;;8.13;43.10;103347.25;5054241;28;11427;-71
2021/11/11 09:04:48;;;;;;;;;6.25;6.25;;;;;8.52;41.63;103346.28;5054123;28;11578;-71
2021/11/11 09:07:39;;;;;;;;;7.75;7.75;;;;;8.38;41.25;103338.59;5058484;28;11399;-71
2021/11/11 09:10:10;;;;;;;;;5.50;5.50;;;;;7.81;42.95;103336.78;5024166;28;12168;-71
2021/11/11 09:12:38;;;;;;;;;10.50;10.00;;;;;8.39;43.82;103332.00;5051371;28;11146;-71
2021/11/11 09:15:34;;;;;;;;;10.00;10.00;;;;;8.61;41.98;103321.84;5036533;28;11453;-71
2021/11/11 09:18:17;;;;;;;;;9.00;8.00;;;;;8.57;42.33;103312.41;5053579;28;11435;-71
2021/11/11 09:21:01;;;;;;;;;7.50;7.00;;;;;8.69;43.50;103315.06;5066177;28;11416;-71
2021/11/11 09:23:57;;;;;;;;;7.00;7.00;;;;;8.45;42.63;103307.00;5053106;28;11440;-70
2021/11/11 09:26:30;;;;;;;;;9.25;9.25;;;;;8.92;41.32;103306.56;5053650;28;11440;-72
2021/11/11 09:29:25;;;;;;;;;5.50;5.50;;;;;8.87;41.06;103293.50;5053552;28;11474;-70
2021/11/11 09:31:58;;;;;;;;;6.00;6.00;;;;;8.95;41.51;103303.28;5036784;28;11418;-72
2021/11/11 09:34:26;;;;;;;;;5.75;5.75;;;;;7.37;42.63;103284.19;5053296;28;11559;-70
2021/11/11 09:36:55;;;;;;;;;7.00;7.00;;;;;7.84;42.97;103283.94;5036164;28;12184;-71
2021/11/11 09:39:51;;;;;;;;;6.50;6.50;;;;;8.23;42.21;103298.63;5020964;28;11434;-71
2021/11/11 09:42:49;;;;;;;;;5.00;5.00;;;;;8.23;40.99;103301.41;5032733;28;11532;-71
2021/11/11 09:45:23;;;;;;;;;7.50;7.50;;;;;8.60;41.46;103281.56;5033362;28;11455;-71
2021/11/11 09:47:52;;;;;;;;;6.25;6.00;;;;;8.73;42.26;103275.66;5033432;28;11559;-71
2021/11/11 09:50:24;;;;;;;;;7.25;7.25;;;;;8.83;42.40;103272.22;5033627;28;11436;-71
2021/11/11 09:53:29;;;;;;;;;7.00;6.50;;;;;9.05;40.97;103256.50;5032550;28;11437;-72
2021/11/11 09:59:41;;;;;;;;;7.25;7.00;;;;;8.99;43.58;103246.47;5032146;28;11433;-71
2021/11/11 10:02:36;;;;;;;;;4.75;4.75;;;;;9.36;41.26;103254.06;5019821;28;11462;-71
2021/11/11 10:05:33;;;;;;;;;5.25;5.25;;;;;9.66;41.00;103248.84;5032877;28;11100;-72
2021/11/11 10:08:03;;;;;;;;;6.25;6.25;;;;;9.25;40.20;103252.28;5052226;28;10804;-72
2021/11/11 10:10:34;;;;;;;;;7.50;7.50;;;;;9.67;39.67;103244.97;5042417;28;10811;-72
2021/11/11 10:13:21;;;;;;;;;6.25;6.25;;;;;9.70;39.61;103246.38;5052394;28;10913;-72
2021/11/11 10:16:16;;;;;;;;;4.25;4.25;;;;;9.82;39.95;103246.19;5052834;28;10692;-72
2021/11/11 10:18:53;;;;;;;;;6.50;6.50;;;;;9.92;37.77;103249.03;5050772;28;10859;-72
2021/11/11 10:21:50;;;;;;;;;7.00;7.00;;;;;9.97;38.01;103235.28;5052877;28;11794;-72
2021/11/11 10:24:48;;;;;;;;;8.75;8.75;;;;;10.22;38.70;103227.16;5052522;28;10831;-72
2021/11/11 10:27:47;;;;;;;;;5.50;5.50;;;;;10.31;38.33;103219.19;5038617;28;10881;-73
2021/11/11 10:30:42;;;;;;;;;7.00;7.00;;;;;10.46;37.74;103221.22;5063176;28;10937;-72
2021/11/11 10:33:13;;;;;;;;;10.75;10.75;;;;;10.01;38.72;103205.97;5052549;28;10791;-73
2021/11/11 10:36:09;;;;;;;;;8.75;7.00;;;;;10.17;37.99;103212.44;5051479;28;10764;-72
2021/11/11 10:39:16;;;;;;;;;5.00;4.00;;;;;9.96;38.12;103198.47;5051730;28;10956;-73
2021/11/11 10:41:45;;;;;;;;;6.75;6.75;;;;;9.68;38.99;103187.78;5034814;28;10867;-73
2021/11/11 10:44:41;;;;;;;;;9.50;9.50;;;;;9.45;39.14;103208.28;5051588;28;10960;-72
2021/11/11 10:47:40;;;;;;;;;7.25;7.25;;;;;9.86;38.63;103197.56;5053206;28;10962;-71
2021/11/11 10:50:22;;;;;;;;;7.00;7.00;;;;;10.26;37.65;103192.31;5052994;28;11787;-71
2021/11/11 10:52:52;;;;;;;;;8.75;8.75;;;;;10.40;36.70;103191.84;5051516;28;11903;-71
2021/11/11 10:55:27;;;;;;;;;8.25;8.25;;;;;10.38;37.20;103188.53;5052733;28;11042;-71
2021/11/11 10:58:17;;;;;;;;;9.00;9.00;;;;;10.52;36.85;103193.31;5052935;28;11018;-71
2021/11/11 11:00:47;;;;;;;;;18.75;18.25;;;;;10.07;37.23;103181.97;5052714;28;11655;-71
2021/11/11 11:03:45;;;;;;;;;8.00;8.00;;;;;9.82;37.67;103175.16;5051307;28;11133;-72
2021/11/11 11:06:41;;;;;;;;;10.50;10.50;;;;;10.35;37.92;103183.50;5051523;28;10750;-71
2021/11/11 11:09:38;;;;;;;;;12.75;12.75;;;;;10.57;37.22;103185.00;5051033;28;11715;-69
2021/11/11 11:12:25;;;;;;;;;12.00;9.50;;;;;10.79;36.10;103167.38;5052323;28;10864;-71
2021/11/11 11:14:53;;;;;;;;;6.00;6.00;;;;;10.84;35.66;103168.22;5052913;28;10969;-71
2021/11/11 11:17:55;;;;;;;;;6.75;6.75;;;;;9.74;36.99;103162.69;5062401;28;10907;-71
2021/11/11 11:20:59;;;;;;;;;9.50;9.50;;;;;10.02;37.00;103166.16;5055254;28;10861;-70
2021/11/11 11:23:53;;;;;;;;;9.00;9.00;;;;;9.99;37.14;103158.41;5055954;28;10678;-70
2021/11/11 11:26:25;;;;;;;;;10.25;10.00;;;;;10.41;37.55;103160.31;5057726;28;10705;-69
2021/11/11 11:29:22;;;;;;;;;9.00;9.00;;;;;10.52;37.91;103154.56;5055911;28;11004;-70
2021/11/11 11:32:12;;;;;;;;;54.00;46.75;;;;;10.51;37.82;103152.06;5056088;28;10916;-71
2021/11/11 11:35:12;;;;;;;;;6.25;6.25;;;;;10.52;35.37;103145.44;5022184;28;11516;-70
2021/11/11 11:37:40;;;;;;;;;7.25;7.25;;;;;10.06;35.54;103145.19;5044416;28;11683;-71
2021/11/11 11:40:35;;;;;;;;;7.00;7.00;;;;;9.93;36.87;103129.91;5054888;28;10693;-70
2021/11/11 11:43:33;;;;;;;;;5.00;5.00;;;;;10.26;34.90;103122.34;5056666;28;10973;-70
2021/11/11 11:46:29;;;;;;;;;9.00;7.00;;;;;10.27;33.93;103112.94;5054680;28;11713;-70
2021/11/11 11:49:26;;;;;;;;;5.50;5.50;;;;;10.29;33.99;103108.00;5041549;28;11003;-69
2021/11/11 11:51:54;;;;;;;;;5.00;5.00;;;;;10.38;33.96;103111.06;5055891;28;10722;-70
2021/11/11 11:55:35;;;;;;;;;8.00;8.00;;;;;10.27;32.87;103110.19;5054572;28;10832;-70
2021/11/11 12:00:54;;;;;;;;;6.75;6.75;;;;;10.14;33.24;103114.25;5049496;28;10756;-70
2021/11/11 12:09:00;;;;;;;;;5.00;5.00;;;;;10.15;34.50;103088.25;5048252;28;10532;-69
2021/11/11 12:15:31;;;;;;;;;6.75;6.75;;;;;9.59;35.76;103082.44;5053595;28;10901;-69
2021/11/11 12:34:35;;;;;;;;;6.00;6.00;;;;;9.22;37.52;103053.97;5051420;28;11208;-70
2021/11/11 12:40:24;;;;;;;;;7.00;7.00;;;;;8.94;37.60;103063.41;5051204;28;11216;-71
2021/11/11 12:43:20;;;;;;;;;9.00;6.75;;;;;9.07;36.84;103055.53;5041813;28;11436;-69
2021/11/11 12:46:43;;;;;;;;;11.00;8.50;;;;;8.74;37.45;103059.38;5053623;28;11241;-70
2021/11/11 12:49:33;;;;;;;;;6.25;6.25;;;;;8.62;38.50;103054.00;5054246;28;11465;-70
2021/11/11 12:52:25;;;;;;;;;7.00;7.00;;;;;8.39;39.22;103048.78;5054237;28;11432;-70
2021/11/11 12:55:17;;;;;;;;;10.25;9.75;;;;;8.47;39.79;103055.75;5034809;28;11409;-70
2021/11/11 12:58:01;;;;;;;;;9.75;9.25;;;;;8.58;40.02;103050.06;5033636;28;11523;-70
2021/11/11 13:01:10;;;;;;;;;11.50;11.50;;;;;8.64;40.16;103049.03;5053664;28;11474;-70
2021/11/11 13:04:06;;;;;;;;;10.75;10.75;;;;;8.50;40.57;103039.50;5051717;28;11501;-69
2021/11/11 13:06:43;;;;;;;;;7.50;7.50;;;;;8.41;41.01;103029.22;5054470;28;11491;-70
2021/11/11 13:09:40;;;;;;;;;9.00;9.00;;;;;8.44;41.37;103028.72;5053195;28;11459;-68
2021/11/11 13:12:38;;;;;;;;;10.50;10.00;;;;;8.50;40.78;103020.19;5043954;28;11435;-69
2021/11/11 13:15:42;;;;;;;;;11.75;11.25;;;;;8.63;40.37;103011.50;5053733;28;11482;-69
2021/11/11 13:18:30;;;;;;;;;12.75;12.75;;;;;8.58;41.04;103014.22;5053269;28;11429;-69
2021/11/11 13:21:36;;;;;;;;;11.25;11.25;;;;;8.53;41.34;103016.13;5039630;28;11428;-69
2021/11/11 13:24:48;;;;;;;;;15.25;14.50;;;;;8.50;41.40;103005.59;5053705;28;11455;-69
2021/11/11 14:00:27;;;;;;;;;17.00;17.00;;;;;6.83;48.78;102959.06;5051869;28;11504;-70
2021/11/11 16:22:28;;;;;;;;;228.25;202.00;;;;;4.92;61.17;102826.84;5055485;28;8868;-69
2021/11/11 16:27:28;;;;;;;;;314.75;241.75;;;;;4.73;61.63;102810.53;5054958;28;8927;-69
2021/11/11 16:30:08;;;;;;;;;161.50;127.50;;;;;4.68;62.04;102813.16;5054963;28;8948;-70
2021/11/11 16:32:37;;;;;;;;;139.00;125.00;;;;;4.65;62.29;102810.06;5055333;28;8841;-69
2021/11/11 16:35:08;;;;;;;;;138.75;119.25;;;;;4.59;63.03;102808.25;5037721;28;8830;-69
2021/11/11 16:37:38;;;;;;;;;116.00;105.00;;;;;4.66;62.56;102812.56;5036908;28;8939;-68
2021/11/11 16:40:34;;;;;;;;;126.50;109.00;;;;;4.50;63.00;102802.31;5053436;28;8848;-69
2021/11/11 16:43:21;;;;;;;;;140.75;123.00;;;;;4.41;63.35;102790.88;5053661;28;8833;-69
2021/11/11 16:45:49;;;;;;;;;145.25;129.75;;;;;4.35;63.67;102785.53;5037283;28;9551;-69
2021/11/11 16:48:45;;;;;;;;;152.50;137.50;;;;;4.40;63.79;102791.13;5053098;28;9560;-70
2021/11/11 16:51:42;;;;;;;;;131.25;111.25;;;;;4.50;64.02;102779.56;5046243;28;8859;-69
2021/11/11 16:54:37;;;;;;;;;125.00;113.75;;;;;4.54;63.92;102789.81;5056432;28;8932;-70
2021/11/11 16:57:33;;;;;;;;;100.00;86.00;;;;;4.56;64.50;102795.88;5073037;28;8876;-70
2021/11/11 17:00:29;;;;;;;;;108.50;96.25;;;;;4.55;64.88;102804.34;5073402;28;8954;-70
2021/11/11 17:03:26;;;;;;;;;110.25;103.50;;;;;4.58;64.97;102799.22;5034736;28;9587;-70